createdAt,value
2022-08-10T00:02:22.585Z,41.64
2022-08-10T00:04:51.688Z,41.79
2022-08-10T00:07:19.456Z,42.13
2022-08-10T00:09:50.627Z,42.05
2022-08-10T00:12:20.470Z,41.53
2022-08-10T00:14:48.570Z,41.42
2022-08-10T00:17:16.470Z,41.41
2022-08-10T00:20:03.224Z,41.88
2022-08-10T00:22:33.738Z,41.49
2022-08-10T00:25:01.747Z,41.58
2022-08-10T00:27:52.952Z,42.08
2022-08-10T00:30:17.553Z,42.02
2022-08-10T00:32:45.597Z,41.42
2022-08-10T00:35:13.456Z,41.65
2022-08-10T00:37:42.624Z,42.09
2022-08-10T00:40:35.171Z,41.47
2022-08-10T00:43:06.153Z,42.10
2022-08-10T00:45:34.105Z,41.80
2022-08-10T00:48:01.880Z,42.00
2022-08-10T00:50:29.835Z,42.17
2022-08-10T00:52:59.270Z,42.03
2022-08-10T00:55:27.358Z,41.96
2022-08-10T00:57:55.888Z,41.53
2022-08-10T01:00:23.871Z,41.59
2022-08-10T01:02:52.199Z,41.88
2022-08-10T01:05:20.552Z,41.53
2022-08-10T01:08:18.596Z,41.61
2022-08-10T01:10:53.751Z,42.03
2022-08-10T01:13:24.116Z,41.48
2022-08-10T01:15:56.298Z,41.91
2022-08-10T01:18:28.947Z,41.43
2022-08-10T01:21:41.923Z,41.89
2022-08-10T01:25:09.983Z,41.47
2022-08-10T01:27:41.777Z,42.01
2022-08-10T01:30:10.939Z,41.69
2022-08-10T01:32:49.283Z,41.81
2022-08-10T01:35:21.613Z,42.09
2022-08-10T01:37:53.242Z,42.16
2022-08-10T01:40:25.085Z,41.70
2022-08-10T01:42:53.738Z,41.86
2022-08-10T01:45:22.994Z,41.50
2022-08-10T01:48:16.761Z,42.01
2022-08-10T01:50:59.615Z,41.81
2022-08-10T01:53:40.074Z,41.99
2022-08-10T01:56:10.359Z,41.90
2022-08-10T01:58:38.317Z,41.99
2022-08-10T02:01:08.078Z,41.94
2022-08-10T02:03:35.928Z,41.83
2022-08-10T02:06:23.852Z,41.67
2022-08-10T02:09:06.010Z,42.15
2022-08-10T02:12:05.502Z,41.44
2022-08-10T02:14:23.180Z,41.54
2022-08-10T02:16:52.636Z,41.38
2022-08-10T02:19:22.925Z,41.67
2022-08-10T02:22:35.354Z,41.50
2022-08-10T02:24:39.424Z,42.05
2022-08-10T02:27:07.265Z,41.96
2022-08-10T02:29:35.133Z,41.61
2022-08-10T02:32:05.113Z,41.64
2022-08-10T02:34:34.493Z,42.01
2022-08-10T02:37:03.374Z,42.00
2022-08-10T02:39:38.959Z,41.79
2022-08-10T02:45:02.363Z,41.79
2022-08-10T02:45:29.195Z,41.30
2022-08-10T02:47:58.464Z,41.71
2022-08-10T02:50:27.976Z,41.95
2022-08-10T02:52:58.867Z,41.34
2022-08-10T02:55:32.559Z,41.56
2022-08-10T02:58:15.344Z,41.80
2022-08-10T03:00:48.246Z,41.37
2022-08-10T03:03:20.432Z,41.94
2022-08-10T03:05:49.394Z,41.73
2022-08-10T03:08:17.978Z,41.46
2022-08-10T03:10:45.762Z,41.51
2022-08-10T03:13:13.870Z,41.43
2022-08-10T03:15:41.700Z,41.51
2022-08-10T03:18:09.476Z,41.94
2022-08-10T03:20:40.150Z,41.73
2022-08-10T03:23:11.864Z,41.93
2022-08-10T03:25:39.650Z,41.24
2022-08-10T03:28:07.580Z,41.93
2022-08-10T03:30:35.392Z,41.45
2022-08-10T03:33:04.553Z,42.10
2022-08-10T03:35:32.343Z,42.00
2022-08-10T03:38:01.629Z,41.33
2022-08-10T03:40:32.328Z,41.62
2022-08-10T03:43:15.039Z,41.80
2022-08-10T03:45:54.771Z,41.73
2022-08-10T03:48:23.524Z,41.40
2022-08-10T03:50:52.704Z,41.83
2022-08-10T03:53:25.236Z,41.32
2022-08-10T03:56:26.820Z,41.98
2022-08-10T03:58:58.398Z,41.25
2022-08-10T04:02:46.582Z,41.73
2022-08-10T04:04:20.612Z,41.46
2022-08-10T04:06:54.782Z,41.37
2022-08-10T04:09:24.971Z,41.32
2022-08-10T04:12:11.903Z,41.85
2022-08-10T04:14:51.274Z,41.77
2022-08-10T04:17:59.507Z,41.21
2022-08-10T04:20:11.655Z,41.95
2022-08-10T04:22:39.790Z,41.52
2022-08-10T04:25:09.712Z,41.66
2022-08-10T04:27:37.601Z,41.82
2022-08-10T04:30:07.661Z,41.72
2022-08-10T04:32:35.993Z,41.36
2022-08-10T04:35:04.501Z,41.69
2022-08-10T04:37:32.311Z,41.96
2022-08-10T04:40:00.114Z,41.10
2022-08-10T04:42:29.358Z,41.69
2022-08-10T04:44:57.277Z,41.26
2022-08-10T04:47:57.257Z,41.56
2022-08-10T04:50:12.930Z,41.72
2022-08-10T04:52:44.476Z,41.76
2022-08-10T04:55:12.282Z,41.13
2022-08-10T04:57:41.563Z,41.83
2022-08-10T05:00:19.077Z,41.75
2022-08-10T05:02:47.647Z,41.77
2022-08-10T05:05:15.397Z,41.25
2022-08-10T05:07:53.722Z,41.55
2022-08-10T05:10:22.122Z,41.65
2022-08-10T05:12:51.585Z,41.15
2022-08-10T05:15:19.324Z,41.20
2022-08-10T05:18:08.326Z,41.54
2022-08-10T05:20:36.153Z,41.57
2022-08-10T05:23:04.429Z,41.00
2022-08-10T05:25:32.438Z,41.88
2022-08-10T05:28:06.324Z,41.35
2022-08-10T05:30:34.701Z,41.58
2022-08-10T05:33:06.705Z,41.59
2022-08-10T05:35:52.872Z,41.10
2022-08-10T05:38:26.388Z,41.27
2022-08-10T05:40:54.606Z,41.12
2022-08-10T05:43:24.166Z,41.71
2022-08-10T05:46:17.521Z,41.52
2022-08-10T05:48:59.489Z,41.19
2022-08-10T05:51:29.019Z,41.04
2022-08-10T05:54:02.966Z,41.59
2022-08-10T05:56:55.903Z,41.60
2022-08-10T06:00:33.270Z,41.52
2022-08-10T06:02:33.176Z,40.99
2022-08-10T06:04:59.785Z,41.55
2022-08-10T06:07:28.163Z,41.04
2022-08-10T06:09:59.080Z,41.17
2022-08-10T06:12:30.091Z,41.11
2022-08-10T06:15:06.074Z,41.66
2022-08-10T06:17:38.151Z,41.72
2022-08-10T06:20:07.066Z,41.19
2022-08-10T06:22:35.697Z,41.70
2022-08-10T06:27:51.562Z,41.10
2022-08-10T06:30:21.293Z,41.52
2022-08-10T06:32:49.600Z,41.40
2022-08-10T06:35:17.521Z,41.40
2022-08-10T06:37:51.524Z,41.34
2022-08-10T06:40:19.873Z,41.21
2022-08-10T06:42:49.281Z,41.18
2022-08-10T06:45:18.336Z,41.57
2022-08-10T06:47:47.984Z,40.92
2022-08-10T06:50:44.960Z,41.53
2022-08-10T06:53:07.140Z,41.10
2022-08-10T06:55:49.775Z,41.76
2022-08-10T06:58:18.345Z,41.65
2022-08-10T07:00:51.860Z,41.76
2022-08-10T07:03:21.830Z,41.01
2022-08-10T07:05:51.411Z,41.07
2022-08-10T07:08:19.821Z,41.19
2022-08-10T07:10:47.991Z,41.15
2022-08-10T07:14:17.316Z,41.50
2022-08-10T07:16:05.771Z,41.20
2022-08-10T07:18:35.226Z,41.63
2022-08-10T07:21:03.071Z,41.01
2022-08-10T07:23:59.665Z,41.68
2022-08-10T07:26:19.332Z,41.23
2022-08-10T07:28:48.296Z,41.51
2022-08-10T07:31:29.811Z,41.14
2022-08-10T07:34:07.564Z,41.59
2022-08-10T07:36:35.381Z,41.03
2022-08-10T07:39:04.982Z,41.52
2022-08-10T07:41:33.264Z,41.77
2022-08-10T07:44:03.023Z,41.13
2022-08-10T07:46:30.961Z,41.18
2022-08-10T07:49:00.789Z,41.18
2022-08-10T07:51:30.466Z,41.58
2022-08-10T07:53:58.231Z,41.23
2022-08-10T07:56:48.086Z,40.89
2022-08-10T07:59:16.402Z,41.54
2022-08-10T08:01:48.089Z,40.99
2022-08-10T08:04:16.370Z,41.70
2022-08-10T08:06:45.879Z,41.57
2022-08-10T08:09:13.752Z,41.66
2022-08-10T08:11:43.502Z,41.47
2022-08-10T08:14:11.766Z,41.66
2022-08-10T08:16:41.516Z,41.22
2022-08-10T08:24:10.319Z,41.64
2022-08-10T08:24:46.810Z,41.22
2022-08-10T08:27:16.758Z,41.82
2022-08-10T08:29:46.190Z,41.43
2022-08-10T08:32:14.473Z,41.74
2022-08-10T08:34:43.500Z,41.17
2022-08-10T08:37:13.316Z,41.08
2022-08-10T08:40:01.226Z,41.02
2022-08-10T08:42:55.942Z,41.60
2022-08-10T08:45:26.478Z,40.97
2022-08-10T08:48:10.287Z,41.66
2022-08-10T08:50:44.108Z,40.95
2022-08-10T08:53:22.920Z,41.59
2022-08-10T08:56:06.120Z,41.36
2022-08-10T08:58:45.171Z,41.26
2022-08-10T09:01:21.227Z,41.11
2022-08-10T09:03:55.757Z,41.60
2022-08-10T09:06:37.757Z,41.61
2022-08-10T09:09:32.576Z,41.06
2022-08-10T09:12:07.093Z,41.07
2022-08-10T09:14:38.344Z,41.47
2022-08-10T09:17:16.329Z,41.26
2022-08-10T09:19:48.241Z,41.23
2022-08-10T09:22:20.553Z,41.37
2022-08-10T09:24:51.442Z,41.63
2022-08-10T09:27:20.643Z,41.55
2022-08-10T09:29:55.993Z,41.20
2022-08-10T09:36:16.775Z,41.50
2022-08-10T09:36:22.103Z,41.64
2022-08-10T09:38:14.707Z,41.18
2022-08-10T09:40:58.920Z,41.60
2022-08-10T09:43:36.381Z,41.40
2022-08-10T09:46:11.787Z,41.40
2022-08-10T09:48:42.809Z,41.53
2022-08-10T09:51:43.639Z,41.09
2022-08-10T09:54:07.711Z,41.51
2022-08-10T09:56:46.569Z,41.14
2022-08-10T09:59:48.257Z,41.60
2022-08-10T10:02:11.087Z,41.27
2022-08-10T10:04:42.141Z,41.56
2022-08-10T10:07:10.360Z,41.31
2022-08-10T10:09:40.606Z,41.31
2022-08-10T10:12:16.755Z,41.45
2022-08-10T10:15:10.369Z,41.46
2022-08-10T10:18:23.357Z,41.20
2022-08-10T10:20:56.905Z,41.48
2022-08-10T10:23:30.838Z,41.94
2022-08-10T10:26:08.475Z,41.12
2022-08-10T10:29:19.639Z,41.31
2022-08-10T10:31:39.713Z,41.15
2022-08-10T10:34:23.180Z,41.87
2022-08-10T10:36:52.160Z,41.76
2022-08-10T10:39:24.072Z,41.49
2022-08-10T10:41:57.442Z,41.61
2022-08-10T10:44:42.339Z,41.18
2022-08-10T10:47:15.894Z,41.50
2022-08-10T10:49:50.926Z,41.45
2022-08-10T10:52:26.197Z,41.12
2022-08-10T10:55:00.127Z,41.29
2022-08-10T10:57:59.974Z,41.22
2022-08-10T11:00:18.332Z,41.54
2022-08-10T11:03:01.036Z,41.23
2022-08-10T11:05:33.563Z,41.87
2022-08-10T11:08:03.090Z,41.32
2022-08-10T11:10:34.793Z,41.30
2022-08-10T11:14:25.725Z,41.80
2022-08-10T11:16:05.596Z,41.16
2022-08-10T11:18:56.262Z,41.56
2022-08-10T11:21:29.332Z,41.36
2022-08-10T11:24:47.342Z,41.81
2022-08-10T11:26:50.696Z,41.42
2022-08-10T11:29:21.797Z,41.65
2022-08-10T11:31:55.214Z,41.74
2022-08-10T11:34:48.127Z,41.50
2022-08-10T11:37:26.081Z,41.70
2022-08-10T11:39:57.510Z,41.85
2022-08-10T11:42:35.678Z,41.22
2022-08-10T11:45:08.066Z,41.92
2022-08-10T11:47:40.749Z,41.78
2022-08-10T11:50:12.538Z,41.38
2022-08-10T11:52:45.335Z,41.77
2022-08-10T11:55:14.883Z,41.89
2022-08-10T11:57:54.501Z,41.25
2022-08-10T12:00:23.521Z,41.88
2022-08-10T12:02:54.858Z,41.52
2022-08-10T12:05:51.590Z,41.85
2022-08-10T12:10:09.636Z,41.62
2022-08-10T12:11:01.977Z,41.29
2022-08-10T12:13:31.401Z,41.50
2022-08-10T12:16:05.595Z,41.68
2022-08-10T12:18:37.716Z,41.41
2022-08-10T12:21:10.117Z,41.83
2022-08-10T12:24:02.837Z,41.77
2022-08-10T12:26:34.882Z,41.90
2022-08-10T12:29:04.533Z,41.34
2022-08-10T12:31:37.137Z,41.75
2022-08-10T12:34:09.889Z,41.87
2022-08-10T12:36:41.532Z,41.88
2022-08-10T12:39:15.771Z,41.85
2022-08-10T12:41:47.549Z,41.92
2022-08-10T12:44:17.383Z,41.35
2022-08-10T12:46:51.069Z,41.88
2022-08-10T12:49:21.517Z,41.40
2022-08-10T12:51:53.920Z,41.79
2022-08-10T12:54:32.767Z,41.25
2022-08-10T12:57:02.874Z,41.89
2022-08-10T12:59:30.829Z,41.34
2022-08-10T13:02:06.618Z,41.86
2022-08-10T13:04:40.370Z,41.78
2022-08-10T13:07:08.153Z,41.67
2022-08-10T13:09:55.724Z,41.77
2022-08-10T13:12:39.101Z,41.80
2022-08-10T13:15:44.583Z,41.38
2022-08-10T13:18:03.069Z,41.61
2022-08-10T13:20:37.277Z,41.73
2022-08-10T13:23:06.942Z,41.70
2022-08-10T13:25:38.137Z,41.43
2022-08-10T13:28:37.751Z,41.28
2022-08-10T13:30:56.536Z,41.25
2022-08-10T13:34:41.416Z,41.71
2022-08-10T13:36:17.142Z,41.26
2022-08-10T13:38:48.658Z,41.27
2022-08-10T13:41:17.313Z,41.36
2022-08-10T13:43:56.557Z,41.49
2022-08-10T13:46:24.560Z,41.99
2022-08-10T13:48:53.444Z,41.41
2022-08-10T13:51:53.757Z,41.40
2022-08-10T13:54:11.495Z,41.87
2022-08-10T13:56:39.413Z,41.87
2022-08-10T13:59:09.942Z,41.63
2022-08-10T14:01:38.262Z,41.88
2022-08-10T14:04:06.814Z,41.34
2022-08-10T14:06:36.067Z,41.45
2022-08-10T14:09:08.938Z,41.96
2022-08-10T14:11:38.485Z,41.90
2022-08-10T14:14:08.284Z,41.43
2022-08-10T14:16:36.196Z,41.36
2022-08-10T14:19:06.160Z,41.84
2022-08-10T14:21:39.857Z,41.80
2022-08-10T14:24:07.841Z,41.32
2022-08-10T14:26:35.614Z,41.75
2022-08-10T14:29:04.455Z,41.60
2022-08-10T14:31:35.365Z,41.37
2022-08-10T14:34:04.701Z,41.39
2022-08-10T14:36:37.946Z,41.96
2022-08-10T14:39:07.231Z,41.79
2022-08-10T14:42:01.748Z,41.84
2022-08-10T14:44:25.254Z,41.51
2022-08-10T14:46:55.739Z,41.63
2022-08-10T14:49:25.863Z,41.75
2022-08-10T14:51:57.769Z,41.53
2022-08-10T14:54:29.572Z,41.63
2022-08-10T14:56:58.078Z,41.57
2022-08-10T15:00:22.765Z,41.85
2022-08-10T15:02:39.856Z,41.41
2022-08-10T15:05:09.182Z,41.55
2022-08-10T15:07:37.562Z,42.00
2022-08-10T15:10:09.215Z,41.82
2022-08-10T15:12:38.279Z,41.80
2022-08-10T15:15:09.321Z,41.23
2022-08-10T15:17:39.621Z,41.44
2022-08-10T15:20:14.553Z,41.55
2022-08-10T15:22:46.897Z,41.88
2022-08-10T15:25:19.007Z,41.30
2022-08-10T15:27:53.358Z,41.48
2022-08-10T15:30:29.842Z,41.77
2022-08-10T15:33:21.470Z,41.91
2022-08-10T15:36:22.941Z,41.30
2022-08-10T15:38:58.949Z,41.38
2022-08-10T15:41:58.834Z,41.93
2022-08-10T15:44:36.660Z,41.33
2022-08-10T15:47:05.948Z,41.20
2022-08-10T15:49:39.636Z,41.35
2022-08-10T15:52:39.362Z,41.52
2022-08-10T15:55:42.883Z,41.90
2022-08-10T15:58:04.952Z,41.90
2022-08-10T16:00:32.808Z,42.01
2022-08-10T16:03:03.070Z,41.25
2022-08-10T16:06:00.457Z,41.46
2022-08-10T16:08:27.200Z,41.37
2022-08-10T16:10:56.885Z,41.35
2022-08-10T16:13:59.507Z,41.41
2022-08-10T16:16:15.321Z,41.88
2022-08-10T16:18:43.986Z,41.45
2022-08-10T16:21:15.139Z,42.04
2022-08-10T16:23:44.172Z,42.02
2022-08-10T16:26:15.397Z,41.75
2022-08-10T16:28:48.125Z,41.37
2022-08-10T16:31:18.018Z,41.33
2022-08-10T16:33:54.032Z,41.48
2022-08-10T16:36:22.603Z,41.44
2022-08-10T16:38:51.434Z,41.80
2022-08-10T16:42:01.947Z,41.41
2022-08-10T16:44:11.489Z,41.30
2022-08-10T16:46:42.421Z,41.71
2022-08-10T16:49:10.265Z,41.42
2022-08-10T16:51:38.459Z,41.58
2022-08-10T16:54:06.417Z,41.92
2022-08-10T16:56:43.576Z,41.92
2022-08-10T16:59:24.776Z,42.02
2022-08-10T17:01:54.407Z,42.14
2022-08-10T17:04:22.466Z,41.75
2022-08-10T17:06:55.859Z,41.85
2022-08-10T17:09:26.235Z,41.66
2022-08-10T17:11:55.693Z,42.13
2022-08-10T17:14:25.679Z,41.61
2022-08-10T17:16:54.358Z,41.63
2022-08-10T17:19:26.067Z,42.24
2022-08-10T17:21:56.053Z,41.82
2022-08-10T17:24:25.343Z,42.25
2022-08-10T17:26:53.241Z,42.34
2022-08-10T17:29:57.315Z,41.67
2022-08-10T17:32:16.181Z,42.12
2022-08-10T17:34:46.757Z,42.34
2022-08-10T17:37:17.082Z,42.15
2022-08-10T17:39:47.489Z,41.70
2022-08-10T17:42:20.815Z,42.35
2022-08-10T17:44:49.724Z,41.75
2022-08-10T17:47:19.068Z,41.89
2022-08-10T17:49:46.941Z,42.11
2022-08-10T17:52:19.996Z,42.07
2022-08-10T17:54:48.192Z,42.42
2022-08-10T17:57:18.573Z,41.81
2022-08-10T17:59:46.925Z,42.39
2022-08-10T18:02:17.945Z,42.05
2022-08-10T18:04:49.780Z,42.00
2022-08-10T18:07:17.614Z,42.20
2022-08-10T18:09:51.963Z,42.00
2022-08-10T18:12:29.130Z,42.44
2022-08-10T18:15:01.577Z,42.49
2022-08-10T18:17:38.469Z,42.20
2022-08-10T18:20:09.839Z,42.18
2022-08-10T18:22:43.289Z,42.39
2022-08-10T18:25:17.287Z,42.10
2022-08-10T18:28:01.338Z,42.20
2022-08-10T18:30:36.297Z,42.11
2022-08-10T18:33:05.729Z,42.25
2022-08-10T18:35:35.456Z,42.25
2022-08-10T18:38:03.352Z,42.43
2022-08-10T18:40:35.465Z,42.40
2022-08-10T18:43:07.379Z,42.99
2022-08-10T18:45:38.001Z,42.43
2022-08-10T18:48:07.854Z,42.92
2022-08-10T18:50:37.974Z,42.51
2022-08-10T18:53:13.174Z,42.43
2022-08-10T18:56:10.273Z,42.71
2022-08-10T18:58:50.902Z,42.50
2022-08-10T19:01:26.454Z,42.98
2022-08-10T19:04:04.453Z,42.56
2022-08-10T19:07:04.192Z,42.50
2022-08-10T19:09:50.047Z,43.12
2022-08-10T19:12:33.026Z,42.54
2022-08-10T19:15:06.999Z,42.56
2022-08-10T19:18:03.277Z,43.06
2022-08-10T19:20:31.708Z,43.22
2022-08-10T19:23:09.207Z,43.45
2022-08-10T19:26:40.699Z,43.18
2022-08-10T19:28:31.985Z,43.39
2022-08-10T19:31:04.057Z,43.05
2022-08-10T19:33:36.787Z,42.88
2022-08-10T19:36:09.697Z,43.19
2022-08-10T19:38:50.354Z,42.93
2022-08-10T19:41:30.950Z,43.31
2022-08-10T19:44:04.312Z,43.11
2022-08-10T19:46:37.178Z,43.45
2022-08-10T19:49:08.483Z,43.17
2022-08-10T19:51:42.585Z,42.91
2022-08-10T19:54:16.888Z,43.35
2022-08-10T19:56:50.857Z,43.04
2022-08-10T20:00:17.451Z,43.40
2022-08-10T20:02:23.081Z,43.48
2022-08-10T20:04:57.553Z,43.19
2022-08-10T20:07:31.279Z,43.32
2022-08-10T20:10:03.168Z,42.99
2022-08-10T20:12:35.873Z,43.24
2022-08-10T20:15:08.971Z,43.16
2022-08-10T20:17:52.123Z,42.99
2022-08-10T20:20:31.286Z,43.12
2022-08-10T20:23:03.606Z,43.78
2022-08-10T20:25:35.039Z,43.66
2022-08-10T20:28:06.444Z,43.27
2022-08-10T20:30:36.918Z,43.68
2022-08-10T20:33:13.246Z,43.78
2022-08-10T20:35:47.942Z,43.17
2022-08-10T20:38:19.015Z,43.29
2022-08-10T20:40:52.054Z,43.19
2022-08-10T20:43:25.410Z,43.23
2022-08-10T20:46:07.891Z,43.38
2022-08-10T20:48:39.284Z,43.48
2022-08-10T20:51:09.293Z,43.47
2022-08-10T20:53:42.459Z,43.12
2022-08-10T20:56:18.418Z,43.31
2022-08-10T20:59:00.557Z,43.39
2022-08-10T21:02:06.686Z,43.81
2022-08-10T21:04:42.385Z,43.46
2022-08-10T21:07:43.925Z,43.30
2022-08-10T21:10:22.589Z,43.44
2022-08-10T21:12:59.065Z,43.64
2022-08-10T21:15:41.866Z,43.27
2022-08-10T21:18:20.693Z,43.84
2022-08-10T21:20:54.574Z,43.40
2022-08-10T21:23:24.732Z,43.35
2022-08-10T21:26:08.335Z,43.50
2022-08-10T21:28:57.949Z,43.16
2022-08-10T21:31:55.279Z,43.32
2022-08-10T21:34:35.083Z,43.28
2022-08-10T21:37:07.930Z,43.89
2022-08-10T21:39:58.738Z,43.74
2022-08-10T21:42:53.356Z,43.85
2022-08-10T21:45:59.055Z,43.65
2022-08-10T21:48:57.644Z,43.84
2022-08-10T21:52:01.593Z,43.26
2022-08-10T21:54:54.190Z,43.32
2022-08-10T21:57:43.397Z,43.35
2022-08-10T22:00:30.105Z,43.60
2022-08-10T22:03:17.846Z,43.50
2022-08-10T22:06:06.626Z,43.60
2022-08-10T22:08:56.317Z,43.41
2022-08-10T22:11:42.737Z,43.34
2022-08-10T22:14:33.603Z,43.85
2022-08-10T22:17:59.169Z,43.30
2022-08-10T22:20:28.981Z,43.43
2022-08-10T22:23:27.363Z,43.98
2022-08-10T22:26:19.868Z,43.86
2022-08-10T22:29:07.878Z,43.35
2022-08-10T22:31:57.257Z,43.54
2022-08-10T22:34:53.670Z,43.99
2022-08-10T22:37:50.521Z,43.98
2022-08-10T22:40:38.205Z,43.47
2022-08-10T22:43:36.277Z,43.76
2022-08-10T22:46:23.637Z,43.43
2022-08-10T22:49:02.540Z,43.98
2022-08-10T22:51:36.139Z,44.11
2022-08-10T22:54:30.867Z,43.54
2022-08-10T22:57:18.453Z,44.04
2022-08-10T22:59:46.280Z,43.98
2022-08-10T23:02:17.517Z,43.91
2022-08-10T23:04:47.303Z,43.54
2022-08-10T23:07:20.604Z,43.44
2022-08-10T23:09:53.769Z,43.92
2022-08-10T23:12:24.221Z,43.92
2022-08-10T23:15:10.544Z,43.79
2022-08-10T23:18:01.249Z,43.81
2022-08-10T23:20:30.209Z,43.91
2022-08-10T23:23:04.753Z,43.46
2022-08-10T23:25:43.674Z,43.52
2022-08-10T23:28:39.364Z,43.88
2022-08-10T23:31:13.157Z,43.79
2022-08-10T23:33:41.038Z,43.94
2022-08-10T23:36:34.160Z,43.91
2022-08-10T23:39:00.783Z,43.69
2022-08-10T23:41:46.646Z,43.70
2022-08-10T23:44:21.278Z,43.94
2022-08-10T23:46:49.201Z,43.87
2022-08-10T23:49:16.988Z,43.25
2022-08-10T23:51:55.925Z,43.76
2022-08-10T23:54:24.799Z,43.50
2022-08-10T23:57:01.066Z,43.87
2022-08-10T23:59:29.481Z,43.33
